今朝の羽田(2017/08/09)

ANA105/JA777A(B77W)

HKE624/B-LED(A321)

ANA880/JA882A(B789)

QFA25/VH-OJT(B744)

SKY528/JA73NX(B738)

ANA8554/JA810A(B788)

JAL36/JA701J(B772)

ANA1000/JA824A(B788)

JAL34/JA703J(B772)

ANA850/JA884A(B789)

*TTW217/B-50011(A320)

ANA844/JA872A(B789)

*APJ859/JA804P(A320)

SIA636/9V-SNC(B77W)

ANA204/JA791A(B77W)

ANA856/JA873A(B789) R2-D2 c/s

THA682/HS-TGX(B744)

*JTA973/JA04RK(B738)

*AAR177/HL8018(A321)

JAL70/JA831J(B788)

*JA680N(C680)

*HKE625/B-LED(A321)

RJTT 082000Z 00000KT 9999 FEW015 SCT140 27/26 Q0992 BECMG 18005KT RMK 1CU015 3AC140 A2932

RJTT 082100Z 06003KT 9999 FEW015 28/26 Q0993 BECMG 18005KT RMK 1CU015 A2933

RJTT 082200Z 07006KT 9999 FEW015 28/25 Q0993 NOSIG

今朝の羽田は晴れています。